createdAt,value
2023-03-05T00:02:07.070Z,-3.04
2023-03-05T00:07:12.619Z,-3.49
2023-03-05T00:12:17.496Z,-3.77
2023-03-05T00:17:20.814Z,-2.46
2023-03-05T00:22:24.133Z,-1.56
2023-03-05T00:27:27.375Z,-2.60
2023-03-05T00:32:31.334Z,-3.23
2023-03-05T00:37:34.699Z,-3.62
2023-03-05T00:42:39.022Z,-3.86
2023-03-05T00:47:42.240Z,-3.62
2023-03-05T00:52:45.577Z,-2.83
2023-03-05T00:57:48.875Z,-2.72
2023-03-05T01:02:52.253Z,-2.67
2023-03-05T01:07:56.865Z,-2.60
2023-03-05T01:13:00.703Z,-2.58
2023-03-05T01:18:04.056Z,-2.56
2023-03-05T01:23:07.697Z,-2.54
2023-03-05T01:28:11.318Z,-2.58
2023-03-05T01:33:14.617Z,-2.65
2023-03-05T01:38:18.419Z,-2.62
2023-03-05T01:43:30.401Z,-2.60
2023-03-05T01:48:33.745Z,-2.60
2023-03-05T01:53:37.437Z,-2.57
2023-03-05T01:58:41.682Z,-2.55
2023-03-05T02:03:45.667Z,-2.55
2023-03-05T02:08:49.017Z,-2.55
2023-03-05T02:13:52.768Z,-2.56
2023-03-05T02:18:56.104Z,-2.58
2023-03-05T02:23:59.389Z,-2.60
2023-03-05T02:29:05.385Z,-2.61
2023-03-05T02:34:08.738Z,-2.60
2023-03-05T02:39:12.025Z,-2.60
2023-03-05T02:44:15.426Z,-2.67
2023-03-05T02:49:18.796Z,-2.65
2023-03-05T02:54:22.171Z,-2.66
2023-03-05T02:59:25.723Z,-2.67
2023-03-05T03:04:29.248Z,-2.71
2023-03-05T03:09:36.236Z,-2.73
2023-03-05T03:14:42.947Z,-2.74
2023-03-05T03:19:47.057Z,-2.73
2023-03-05T03:24:50.290Z,-2.63
2023-03-05T03:29:53.523Z,-2.40
2023-03-05T03:34:57.991Z,-2.13
2023-03-05T03:40:01.366Z,-1.88
2023-03-05T03:45:05.295Z,-1.64
2023-03-05T03:50:09.378Z,-1.46
2023-03-05T03:55:12.712Z,-1.35
2023-03-05T04:00:16.685Z,-1.24
2023-03-05T04:05:20.165Z,-1.19
2023-03-05T04:10:23.479Z,-1.19
